Time;durP1;ratioP1;P1;durP2;ratioP2;P2;SDS_P1;SDS_P2;PMS_P1;PMS_P2;Temp;Humidity;BMP_temperature;BMP_pressure;BME280_temperature;BME280_humidity;BME280_pressure;Samples;Min_cycle;Max_cycle;Signal;HPM_P1;HPM_P2
2023/07/23 02:10:03;;;;;;;6.88;3.65;;;;;;;;;;6259870;22;20219;-91
2023/07/23 02:13:09;;;;;;;5.75;3.60;;;;;;;;;;6243136;23;20170;-88
2023/07/23 02:16:17;;;;;;;5.85;3.10;;;;;;;;;;6241900;23;20181;-90
2023/07/23 02:19:22;;;;;;;7.43;3.75;;;;;;;;;;6242859;23;20168;-89
2023/07/23 02:22:27;;;;;;;6.68;3.75;;;;;;;;;;6242144;23;20167;-90
2023/07/23 02:25:40;;;;;;;8.60;3.50;;;;;;;;;;6242564;22;20170;-92
2023/07/23 02:28:45;;;;;;;9.45;3.55;;;;;;;;;;6242159;23;20170;-89
2023/07/23 02:31:51;;;;;;;6.20;3.20;;;;;;;;;;6241532;23;20217;-89
2023/07/23 02:34:56;;;;;;;8.55;3.63;;;;;;;;;;6242718;22;20210;-90
2023/07/23 02:38:01;;;;;;;7.18;3.67;;;;;;;;;;6241907;22;20601;-90
2023/07/23 02:41:08;;;;;;;7.38;3.38;;;;;;;;;;6243064;23;20235;-89
2023/07/23 02:44:13;;;;;;;7.03;3.63;;;;;;;;;;6241441;23;20246;-89
2023/07/23 02:47:18;;;;;;;8.10;3.55;;;;;;;;;;6240109;23;20171;-90
2023/07/23 02:50:25;;;;;;;8.90;4.00;;;;;;;;;;6241685;23;20150;-92
2023/07/23 02:53:30;;;;;;;7.10;3.50;;;;;;;;;;6241028;23;20656;-88
2023/07/23 02:56:37;;;;;;;7.97;3.50;;;;;;;;;;6242075;23;20167;-89
2023/07/23 02:59:42;;;;;;;6.97;3.70;;;;;;;;;;6241375;23;20215;-91
2023/07/23 03:02:47;;;;;;;6.97;3.70;;;;;;;;;;6241331;22;20167;-89
2023/07/23 03:05:53;;;;;;;7.30;3.70;;;;;;;;;;6242193;23;20163;-90
2023/07/23 03:08:58;;;;;;;5.88;3.50;;;;;;;;;;6242882;23;20194;-90
2023/07/23 03:12:05;;;;;;;8.50;3.60;;;;;;;;;;6258050;23;20531;-89
2023/07/23 03:15:11;;;;;;;8.07;3.38;;;;;;;;;;6258682;22;20194;-90
2023/07/23 03:18:16;;;;;;;6.75;3.92;;;;;;;;;;6259283;23;20166;-90
2023/07/23 03:21:21;;;;;;;8.27;3.75;;;;;;;;;;6259674;23;20158;-92
2023/07/23 03:24:30;;;;;;;6.45;3.90;;;;;;;;;;6259868;23;20194;-90
2023/07/23 03:27:37;;;;;;;6.38;3.72;;;;;;;;;;6258841;22;20186;-90
2023/07/23 03:30:42;;;;;;;6.45;3.70;;;;;;;;;;6258681;23;20209;-91
2023/07/23 03:33:47;;;;;;;7.82;3.45;;;;;;;;;;6259027;23;20166;-89
2023/07/23 03:36:52;;;;;;;7.32;3.30;;;;;;;;;;6258280;22;20166;-91
2023/07/23 03:39:57;;;;;;;6.15;3.33;;;;;;;;;;6259744;22;20170;-88
2023/07/23 03:43:03;;;;;;;8.85;3.80;;;;;;;;;;6259118;22;20170;-90
2023/07/23 03:46:09;;;;;;;6.90;3.60;;;;;;;;;;6257909;22;20182;-89
2023/07/23 03:49:14;;;;;;;6.30;3.65;;;;;;;;;;6258273;23;20154;-88
2023/07/23 03:52:20;;;;;;;7.78;3.60;;;;;;;;;;6258287;22;20189;-90
2023/07/23 03:55:25;;;;;;;5.63;3.15;;;;;;;;;;6259943;23;20170;-90
2023/07/23 03:58:31;;;;;;;6.68;3.60;;;;;;;;;;6258582;23;20166;-90
2023/07/23 04:01:36;;;;;;;6.43;3.80;;;;;;;;;;6258007;22;20166;-88
2023/07/23 04:04:42;;;;;;;6.28;3.55;;;;;;;;;;6257814;23;20194;-90
2023/07/23 04:07:47;;;;;;;6.53;3.53;;;;;;;;;;6257829;22;20171;-92
2023/07/23 04:10:55;;;;;;;8.02;3.80;;;;;;;;;;6256804;23;20174;-89
2023/07/23 04:14:02;;;;;;;6.25;3.60;;;;;;;;;;6258155;23;20617;-90
2023/07/23 04:17:07;;;;;;;9.15;3.70;;;;;;;;;;6258193;23;20166;-90
2023/07/23 04:20:12;;;;;;;6.63;3.63;;;;;;;;;;6258343;23;20274;-88
2023/07/23 04:23:18;;;;;;;10.82;3.88;;;;;;;;;;6259186;23;20245;-90
2023/07/23 04:26:23;;;;;;;7.03;3.50;;;;;;;;;;6259614;23;20174;-91
2023/07/23 04:29:30;;;;;;;8.27;3.47;;;;;;;;;;6260047;22;20166;-90
2023/07/23 04:32:36;;;;;;;7.50;3.40;;;;;;;;;;6261702;22;20165;-89
2023/07/23 04:35:41;;;;;;;6.55;3.30;;;;;;;;;;6260953;23;20165;-92
2023/07/23 04:38:49;;;;;;;6.68;3.63;;;;;;;;;;6261158;22;20171;-90
2023/07/23 04:41:55;;;;;;;6.30;3.67;;;;;;;;;;6260844;23;20171;-87
2023/07/23 04:45:01;;;;;;;8.70;3.80;;;;;;;;;;6261726;23;20190;-90
2023/07/23 04:48:11;;;;;;;12.02;3.72;;;;;;;;;;6260754;23;20231;-91
2023/07/23 04:51:16;;;;;;;6.25;3.60;;;;;;;;;;6261764;23;20207;-90
2023/07/23 04:54:21;;;;;;;6.75;3.65;;;;;;;;;;6261832;22;20170;-90
2023/07/23 04:57:26;;;;;;;6.80;3.88;;;;;;;;;;6261238;22;20166;-90
2023/07/23 05:00:33;;;;;;;6.50;3.70;;;;;;;;;;6262974;22;20166;-90
2023/07/23 05:03:38;;;;;;;6.78;3.63;;;;;;;;;;6262141;23;20599;-90
2023/07/23 05:06:44;;;;;;;6.53;3.47;;;;;;;;;;6262357;22;20241;-90
2023/07/23 05:09:49;;;;;;;6.63;3.72;;;;;;;;;;6262087;23;20190;-91
2023/07/23 05:12:54;;;;;;;6.60;3.58;;;;;;;;;;6261734;22;20602;-89
2023/07/23 05:16:02;;;;;;;11.18;3.75;;;;;;;;;;6262303;23;20166;-90
2023/07/23 05:19:07;;;;;;;7.38;3.83;;;;;;;;;;6261366;23;20226;-90
2023/07/23 05:22:12;;;;;;;7.18;3.58;;;;;;;;;;6261869;23;20166;-90
2023/07/23 05:25:18;;;;;;;5.30;3.40;;;;;;;;;;6261686;22;20198;-90
2023/07/23 05:28:23;;;;;;;7.47;3.63;;;;;;;;;;6261524;22;20166;-89
2023/07/23 05:31:32;;;;;;;5.72;3.60;;;;;;;;;;6260958;22;20541;-90
2023/07/23 05:34:37;;;;;;;6.88;3.20;;;;;;;;;;6261528;23;20163;-90
2023/07/23 05:37:42;;;;;;;8.02;3.58;;;;;;;;;;6262285;22;20247;-91
2023/07/23 05:40:53;;;;;;;9.48;3.72;;;;;;;;;;6261062;22;20170;-91
2023/07/23 05:43:58;;;;;;;6.35;3.58;;;;;;;;;;6260424;22;20605;-91
2023/07/23 05:47:08;;;;;;;7.82;3.60;;;;;;;;;;6259533;23;20170;-89
2023/07/23 05:50:15;;;;;;;5.95;3.65;;;;;;;;;;6261671;22;20174;-90
2023/07/23 05:53:22;;;;;;;9.90;3.80;;;;;;;;;;6260659;23;20167;-90
2023/07/23 05:56:27;;;;;;;8.13;3.58;;;;;;;;;;6262134;22;20618;-91
2023/07/23 05:59:33;;;;;;;6.47;3.70;;;;;;;;;;6260969;22;20495;-90
2023/07/23 06:02:38;;;;;;;5.80;2.90;;;;;;;;;;6261674;23;20170;-91
2023/07/23 06:05:44;;;;;;;7.43;3.50;;;;;;;;;;6260984;23;20243;-89
2023/07/23 06:08:50;;;;;;;9.23;3.45;;;;;;;;;;6260909;22;20513;-91
2023/07/23 06:11:56;;;;;;;8.13;3.40;;;;;;;;;;6261254;22;20209;-91
2023/07/23 06:15:01;;;;;;;5.75;3.50;;;;;;;;;;6260062;22;20166;-91
2023/07/23 06:18:06;;;;;;;7.60;3.58;;;;;;;;;;6259489;22;20182;-88
2023/07/23 06:21:13;;;;;;;8.15;3.55;;;;;;;;;;6261180;23;20182;-90
2023/07/23 06:24:19;;;;;;;6.40;3.40;;;;;;;;;;6260878;22;20163;-91
2023/07/23 06:27:28;;;;;;;5.47;3.08;;;;;;;;;;6260860;22;20171;-91
2023/07/23 06:30:34;;;;;;;8.20;3.88;;;;;;;;;;6260646;22;20166;-90
2023/07/23 06:33:39;;;;;;;6.35;3.40;;;;;;;;;;6258957;23;20171;-89
2023/07/23 06:36:46;;;;;;;6.03;3.42;;;;;;;;;;6260719;23;20158;-87
2023/07/23 06:39:51;;;;;;;7.25;3.13;;;;;;;;;;6259184;23;20713;-90
2023/07/23 06:42:56;;;;;;;7.25;3.60;;;;;;;;;;6259652;22;20179;-88
2023/07/23 06:46:03;;;;;;;4.95;3.00;;;;;;;;;;6261867;22;20243;-91
2023/07/23 06:52:31;;;;;;;4.65;3.15;;;;;;;;;;6262327;22;20235;-90
2023/07/23 06:55:57;;;;;;;5.75;3.60;;;;;;;;;;6260546;22;20534;-90
2023/07/23 06:59:04;;;;;;;7.43;3.55;;;;;;;;;;6261608;22;20491;-88
2023/07/23 07:02:09;;;;;;;5.50;3.20;;;;;;;;;;6261019;23;20494;-90
2023/07/23 07:05:14;;;;;;;6.03;3.08;;;;;;;;;;6260403;22;20237;-90
2023/07/23 07:08:21;;;;;;;7.72;3.28;;;;;;;;;;6258908;23;20600;-91
2023/07/23 07:11:26;;;;;;;4.45;2.80;;;;;;;;;;6243489;23;20247;-90
2023/07/23 07:14:31;;;;;;;6.10;3.00;;;;;;;;;;6243015;23;20170;-91
2023/07/23 07:17:36;;;;;;;5.28;3.20;;;;;;;;;;6242341;22;20174;-90
2023/07/23 07:20:42;;;;;;;6.40;3.10;;;;;;;;;;6243853;22;20170;-89
2023/07/23 07:23:57;;;;;;;4.43;2.90;;;;;;;;;;6242347;23;20183;-89
2023/07/23 07:27:08;;;;;;;6.07;3.00;;;;;;;;;;6243558;23;20242;-91
2023/07/23 07:30:14;;;;;;;6.20;3.33;;;;;;;;;;6242797;23;20614;-91
2023/07/23 07:33:19;;;;;;;4.63;3.05;;;;;;;;;;6244297;23;20261;-88
2023/07/23 07:36:24;;;;;;;4.20;2.45;;;;;;;;;;6242391;23;20198;-90
2023/07/23 07:39:32;;;;;;;5.90;3.40;;;;;;;;;;6243760;23;20165;-89
2023/07/23 07:42:42;;;;;;;3.67;2.83;;;;;;;;;;6244360;23;20617;-91
2023/07/23 07:45:52;;;;;;;4.97;2.90;;;;;;;;;;6245341;23;20191;-90
2023/07/23 07:48:59;;;;;;;6.20;2.92;;;;;;;;;;6245652;23;20174;-90
2023/07/23 07:52:05;;;;;;;6.25;4.30;;;;;;;;;;6246998;23;20166;-88
2023/07/23 07:55:12;;;;;;;6.40;2.90;;;;;;;;;;6246692;23;20170;-90
2023/07/23 07:58:24;;;;;;;5.82;3.10;;;;;;;;;;6245524;23;20178;-90
2023/07/23 08:01:30;;;;;;;5.88;3.08;;;;;;;;;;6246297;23;20169;-91
2023/07/23 08:04:36;;;;;;;4.90;2.53;;;;;;;;;;6246396;22;20161;-91
2023/07/23 08:07:43;;;;;;;6.10;2.80;;;;;;;;;;6246439;23;20216;-90
2023/07/23 08:10:49;;;;;;;5.32;2.90;;;;;;;;;;6247888;23;20600;-89
2023/07/23 08:13:55;;;;;;;5.90;2.80;;;;;;;;;;6243401;23;20170;-89
2023/07/23 08:17:02;;;;;;;4.05;2.72;;;;;;;;;;6228369;23;20337;-91
2023/07/23 08:20:10;;;;;;;4.88;2.90;;;;;;;;;;6262275;23;20170;-92
2023/07/23 08:23:15;;;;;;;5.28;2.80;;;;;;;;;;6244424;23;20165;-92
2023/07/23 08:26:22;;;;;;;5.47;3.22;;;;;;;;;;6245453;23;20181;-90
2023/07/23 08:29:30;;;;;;;6.20;3.13;;;;;;;;;;6245405;23;20173;-90
2023/07/23 08:32:48;;;;;;;4.53;2.83;;;;;;;;;;6246564;22;20240;-90
2023/07/23 08:35:53;;;;;;;6.32;3.20;;;;;;;;;;6246985;23;20180;-91
2023/07/23 20:26:38;;;;;;;17.02;6.95;;;;;;;;;;6256394;22;20203;-91
2023/07/23 20:29:44;;;;;;;15.85;7.50;;;;;;;;;;6246078;22;20167;-91
2023/07/23 20:32:54;;;;;;;18.58;7.38;;;;;;;;;;6247188;23;20170;-92
2023/07/23 20:36:00;;;;;;;16.52;7.30;;;;;;;;;;6248289;23;20223;-92
2023/07/23 20:39:19;;;;;;;16.90;7.25;;;;;;;;;;6246530;23;20186;-91
2023/07/23 20:42:27;;;;;;;18.67;7.25;;;;;;;;;;6246972;22;20154;-93
2023/07/23 20:45:33;;;;;;;22.83;7.05;;;;;;;;;;6246835;23;20239;-92
2023/07/23 20:52:54;;;;;;;17.33;7.07;;;;;;;;;;6262439;23;20142;-93
2023/07/23 20:56:00;;;;;;;15.52;6.07;;;;;;;;;;6244882;23;20214;-92
2023/07/23 20:59:08;;;;;;;15.40;6.82;;;;;;;;;;6243916;23;20162;-93
2023/07/23 21:02:13;;;;;;;14.45;7.32;;;;;;;;;;6242935;22;20228;-91
2023/07/23 21:05:19;;;;;;;19.15;7.55;;;;;;;;;;6246213;23;20165;-92
2023/07/23 21:08:24;;;;;;;16.48;7.78;;;;;;;;;;6245488;23;20626;-89
2023/07/23 21:11:31;;;;;;;16.33;6.90;;;;;;;;;;6246024;22;20166;-92
2023/07/23 21:14:38;;;;;;;15.15;7.47;;;;;;;;;;6246486;22;20629;-91
2023/07/23 21:17:43;;;;;;;15.68;7.72;;;;;;;;;;6245682;23;20169;-91
2023/07/23 21:20:49;;;;;;;16.65;6.80;;;;;;;;;;6246735;22;20205;-90
2023/07/23 21:23:54;;;;;;;17.80;7.68;;;;;;;;;;6250667;22;20170;-92
2023/07/23 21:27:00;;;;;;;16.52;7.38;;;;;;;;;;6246247;22;20336;-90
2023/07/23 21:30:09;;;;;;;19.27;6.82;;;;;;;;;;6246752;22;20210;-92
2023/07/23 21:33:17;;;;;;;14.10;6.53;;;;;;;;;;6245553;23;20178;-90
2023/07/23 21:36:58;;;;;;;16.50;7.45;;;;;;;;;;6246700;23;20169;-89
2023/07/23 21:40:04;;;;;;;16.90;7.80;;;;;;;;;;6245688;23;20278;-91
2023/07/23 21:43:09;;;;;;;16.48;8.07;;;;;;;;;;6244457;22;20171;-91
2023/07/23 21:46:16;;;;;;;16.15;7.95;;;;;;;;;;6245727;22;20241;-91
2023/07/23 21:49:22;;;;;;;15.65;7.15;;;;;;;;;;6245954;22;20648;-91
2023/07/23 21:52:27;;;;;;;15.23;7.68;;;;;;;;;;6244278;23;20167;-93
2023/07/23 21:55:32;;;;;;;15.15;7.60;;;;;;;;;;6243619;23;20223;-93
2023/07/23 21:58:37;;;;;;;16.75;7.43;;;;;;;;;;6243943;22;20496;-90
2023/07/23 22:01:54;;;;;;;19.48;7.03;;;;;;;;;;6244910;22;20219;-92
2023/07/23 22:04:59;;;;;;;17.27;7.00;;;;;;;;;;6246310;22;20187;-92
2023/07/23 22:08:05;;;;;;;14.75;7.20;;;;;;;;;;6246611;23;20146;-92
2023/07/23 22:11:10;;;;;;;18.45;7.28;;;;;;;;;;6249221;22;20186;-93
2023/07/23 22:14:15;;;;;;;16.70;7.47;;;;;;;;;;6249210;22;20162;-90
2023/07/23 22:17:22;;;;;;;17.77;7.03;;;;;;;;;;6246735;22;20235;-93
2023/07/23 22:20:27;;;;;;;16.67;7.15;;;;;;;;;;6247980;22;20182;-92
2023/07/23 22:23:32;;;;;;;17.55;7.72;;;;;;;;;;6247122;22;20159;-91
2023/07/23 22:26:38;;;;;;;14.25;6.70;;;;;;;;;;6260489;22;20202;-93
2023/07/23 22:29:43;;;;;;;14.70;6.85;;;;;;;;;;6265876;22;20167;-90
2023/07/23 22:32:52;;;;;;;13.73;6.85;;;;;;;;;;6263729;23;20274;-93
2023/07/23 22:35:57;;;;;;;17.88;7.00;;;;;;;;;;6265023;23;20219;-91
2023/07/23 22:42:52;;;;;;;18.70;7.45;;;;;;;;;;6265218;22;20178;-92
2023/07/23 22:45:57;;;;;;;15.93;7.35;;;;;;;;;;6263191;22;20161;-91
2023/07/23 22:49:07;;;;;;;18.48;7.75;;;;;;;;;;6263262;22;20220;-89
2023/07/23 22:52:12;;;;;;;22.38;7.47;;;;;;;;;;6261369;22;20206;-92
2023/07/23 22:55:18;;;;;;;16.77;7.15;;;;;;;;;;6263994;22;20151;-93
2023/07/23 22:58:23;;;;;;;19.05;7.72;;;;;;;;;;6264109;22;20214;-92
2023/07/23 23:01:29;;;;;;;16.13;7.88;;;;;;;;;;6266781;22;20610;-93
2023/07/23 23:04:36;;;;;;;18.98;7.72;;;;;;;;;;6263531;22;20597;-90
2023/07/23 23:07:45;;;;;;;19.55;9.13;;;;;;;;;;6263310;23;20210;-91
2023/07/23 23:10:50;;;;;;;27.08;8.82;;;;;;;;;;6265370;22;20158;-92
2023/07/23 23:13:56;;;;;;;19.88;8.20;;;;;;;;;;6266646;23;20170;-93
2023/07/23 23:17:11;;;;;;;20.75;7.20;;;;;;;;;;6267278;22;20220;-92
2023/07/23 23:20:19;;;;;;;14.90;7.53;;;;;;;;;;6249269;23;20170;-90
2023/07/23 23:23:27;;;;;;;19.02;7.93;;;;;;;;;;6265929;23;20166;-89
2023/07/23 23:26:35;;;;;;;15.15;7.57;;;;;;;;;;6266786;22;20249;-91
2023/07/23 23:29:43;;;;;;;22.25;9.00;;;;;;;;;;6249295;23;20214;-90
2023/07/23 23:32:49;;;;;;;18.80;8.13;;;;;;;;;;6266086;22;20163;-91
2023/07/23 23:36:01;;;;;;;19.80;8.45;;;;;;;;;;6266144;22;20151;-93
2023/07/23 23:39:16;;;;;;;21.35;8.65;;;;;;;;;;6266543;23;20151;-89
2023/07/23 23:42:22;;;;;;;20.60;8.27;;;;;;;;;;6265970;22;20166;-92
2023/07/23 23:45:27;;;;;;;18.10;8.20;;;;;;;;;;6266821;22;20166;-91
2023/07/23 23:48:35;;;;;;;16.63;8.13;;;;;;;;;;6265620;23;20170;-90
2023/07/23 23:51:42;;;;;;;16.77;8.05;;;;;;;;;;6262672;22;20154;-89
2023/07/23 23:54:47;;;;;;;23.55;8.70;;;;;;;;;;6260587;23;20170;-90
2023/07/23 23:57:52;;;;;;;18.48;8.20;;;;;;;;;;6263569;22;20154;-91
